Time;durP1;ratioP1;P1;durP2;ratioP2;P2;SDS_P1;SDS_P2;PMS_P1;PMS_P2;Temp;Humidity;BMP_temperature;BMP_pressure;BME280_temperature;BME280_humidity;BME280_pressure;Samples;Min_cycle;Max_cycle;Signal;HPM_P1;HPM_P2
2022/02/25 00:08:54;;;;;;;7.10;4.53;;;;;;;3.91;78.38;100552.44;4998669;28;20469;-65
2022/02/25 00:11:20;;;;;;;8.40;5.67;;;;;;;4.33;77.92;100552.09;4999597;28;20700;-63
2022/02/25 00:13:45;;;;;;;4.80;4.20;;;;;;;4.29;77.71;100547.66;5000046;28;20418;-67
2022/02/25 00:16:10;;;;;;;7.90;4.90;;;;;;;4.37;77.29;100550.47;4999859;28;20171;-66
2022/02/25 00:18:36;;;;;;;8.23;4.40;;;;;;;4.29;78.15;100552.81;4999425;28;20178;-66
2022/02/25 00:21:01;;;;;;;7.40;4.17;;;;;;;4.42;77.38;100559.22;4999978;28;20172;-68
2022/02/25 00:23:26;;;;;;;6.23;4.50;;;;;;;4.20;77.56;100565.41;4999191;28;20560;-67
2022/02/25 00:25:52;;;;;;;8.40;4.83;;;;;;;4.36;77.44;100567.66;4982456;28;20327;-66
2022/02/25 00:28:17;;;;;;;8.93;4.53;;;;;;;4.51;77.94;100569.00;4999858;28;20211;-66
2022/02/25 00:30:42;;;;;;;10.40;4.80;;;;;;;4.25;77.95;100575.88;4999607;28;20179;-66
2022/02/25 00:33:08;;;;;;;7.63;4.47;;;;;;;4.21;77.33;100587.81;4999973;28;20182;-67
2022/02/25 00:35:33;;;;;;;14.07;5.00;;;;;;;4.40;77.99;100594.47;5000045;28;20175;-66
2022/02/25 00:37:59;;;;;;;9.37;4.70;;;;;;;4.25;77.54;100589.69;4999328;28;20226;-66
2022/02/25 00:40:25;;;;;;;12.20;4.67;;;;;;;4.16;77.46;100599.69;4999212;28;20171;-66
2022/02/25 00:42:50;;;;;;;7.63;4.10;;;;;;;4.29;77.57;100606.13;4999822;28;20481;-66
2022/02/25 00:45:15;;;;;;;9.40;4.50;;;;;;;4.22;78.57;100603.34;4999080;28;20211;-66
2022/02/25 00:47:41;;;;;;;9.83;4.37;;;;;;;4.11;78.82;100608.97;4999239;28;20207;-66
2022/02/25 00:50:08;;;;;;;5.40;4.20;;;;;;;4.17;79.09;100609.19;4999843;28;20262;-66
2022/02/25 00:52:34;;;;;;;4.57;4.17;;;;;;;4.29;77.95;100614.75;4999267;28;20176;-67
2022/02/25 00:54:59;;;;;;;11.73;4.00;;;;;;;4.09;77.10;100629.56;4999120;28;20433;-65
2022/02/25 00:57:24;;;;;;;6.57;4.03;;;;;;;3.86;78.20;100621.91;4999531;28;20167;-65
2022/02/25 00:59:50;;;;;;;10.17;4.40;;;;;;;4.08;77.89;100629.50;4998935;28;20518;-65
2022/02/25 01:02:15;;;;;;;11.90;4.33;;;;;;;3.84;78.79;100630.41;4999033;28;20179;-65
2022/02/25 01:04:41;;;;;;;6.73;3.83;;;;;;;3.71;79.31;100634.25;4998435;28;20438;-65
2022/02/25 01:07:06;;;;;;;17.67;4.43;;;;;;;3.99;77.97;100630.97;4998763;28;20179;-66
2022/02/25 01:09:31;;;;;;;12.23;4.33;;;;;;;4.46;76.33;100638.53;4998859;28;20541;-65
2022/02/25 01:11:57;;;;;;;8.20;3.60;;;;;;;4.12;77.34;100642.56;4982478;28;20180;-65
2022/02/25 01:14:22;;;;;;;5.20;3.63;;;;;;;4.01;77.46;100639.63;4998710;28;20533;-65
2022/02/25 01:16:47;;;;;;;7.93;4.30;;;;;;;3.95;77.65;100638.53;4998744;28;20199;-65
2022/02/25 01:19:14;;;;;;;5.50;3.47;;;;;;;3.95;77.30;100642.00;4999276;28;20168;-65
2022/02/25 01:21:39;;;;;;;13.23;3.93;;;;;;;4.36;76.81;100642.50;4999109;28;20254;-65
2022/02/25 01:24:05;;;;;;;8.10;4.40;;;;;;;4.16;76.08;100640.97;4999169;28;20536;-65
2022/02/25 01:26:31;;;;;;;8.53;3.77;;;;;;;4.06;76.91;100644.94;4999589;28;20172;-65
2022/02/25 01:28:56;;;;;;;11.27;4.13;;;;;;;4.33;76.02;100644.09;4981554;28;20175;-65
2022/02/25 01:31:23;;;;;;;13.23;4.50;;;;;;;4.04;76.42;100642.28;4998538;28;20172;-65
2022/02/25 01:33:48;;;;;;;10.80;4.97;;;;;;;4.50;75.91;100644.69;4999063;28;20176;-65
2022/02/25 01:36:14;;;;;;;8.70;4.20;;;;;;;4.40;75.19;100643.50;5001166;28;20450;-66
2022/02/25 01:38:39;;;;;;;8.83;3.97;;;;;;;4.24;75.16;100652.44;5002509;28;20179;-65
2022/02/25 01:41:04;;;;;;;9.10;4.20;;;;;;;4.15;76.71;100646.94;5003654;28;20199;-66
2022/02/25 01:43:30;;;;;;;14.30;4.73;;;;;;;4.14;75.88;100650.34;5002724;28;20227;-66
2022/02/25 01:45:55;;;;;;;9.67;3.60;;;;;;;4.13;75.83;100654.63;5002668;28;20194;-66
2022/02/25 01:48:20;;;;;;;8.17;3.50;;;;;;;4.29;76.03;100666.38;5002690;28;20199;-65
2022/02/25 01:50:46;;;;;;;12.90;4.13;;;;;;;3.86;76.03;100663.16;5002646;28;20183;-64
2022/02/25 01:53:12;;;;;;;10.43;3.97;;;;;;;4.16;75.57;100654.75;5002614;28;20450;-66
2022/02/25 01:55:39;;;;;;;11.93;5.00;;;;;;;4.34;76.48;100643.28;5002938;28;20783;-66
2022/02/25 01:58:05;;;;;;;6.63;4.17;;;;;;;4.30;74.89;100657.81;5002047;28;20176;-66
2022/02/25 02:00:31;;;;;;;9.67;3.90;;;;;;;4.14;75.27;100650.34;5002568;28;20415;-67
2022/02/25 02:02:56;;;;;;;8.00;3.50;;;;;;;4.05;75.02;100659.53;5002977;28;20410;-65
2022/02/25 02:05:22;;;;;;;8.47;4.30;;;;;;;4.35;74.53;100660.53;5002339;28;20200;-65
2022/02/25 02:07:47;;;;;;;6.80;4.10;;;;;;;4.48;74.07;100660.13;4985069;28;20246;-66
2022/02/25 02:10:13;;;;;;;9.73;4.17;;;;;;;4.31;74.30;100671.56;5002704;28;20415;-66
2022/02/25 02:12:39;;;;;;;8.10;4.03;;;;;;;4.34;74.32;100677.72;4985120;28;20183;-65
2022/02/25 02:15:04;;;;;;;9.73;4.20;;;;;;;4.03;74.73;100674.09;4985137;28;20195;-65
2022/02/25 02:17:31;;;;;;;22.13;5.50;;;;;;;4.40;75.70;100674.47;5002453;28;20172;-66
2022/02/25 02:19:56;;;;;;;5.13;3.30;;;;;;;4.47;74.00;100671.25;5002128;28;20287;-66
2022/02/25 02:22:25;;;;;;;6.47;4.00;;;;;;;4.32;74.91;100673.34;5002045;28;20418;-65
2022/02/25 02:24:51;;;;;;;4.30;3.83;;;;;;;4.32;75.24;100671.63;5002376;28;20219;-65
2022/02/25 02:27:16;;;;;;;9.80;4.57;;;;;;;4.56;74.65;100662.97;5001662;28;20426;-66
2022/02/25 02:29:42;;;;;;;8.17;4.40;;;;;;;4.21;74.85;100670.41;5001882;28;20175;-65
2022/02/25 02:32:08;;;;;;;6.00;4.10;;;;;;;4.40;73.94;100671.91;5002302;28;20168;-65
2022/02/25 02:34:33;;;;;;;12.80;4.63;;;;;;;4.58;73.98;100670.75;5001743;28;20238;-65
2022/02/25 02:36:59;;;;;;;7.77;4.00;;;;;;;4.46;74.18;100668.63;5001661;28;20437;-64
2022/02/25 02:39:24;;;;;;;9.57;3.90;;;;;;;4.64;74.72;100674.41;5002268;28;20183;-65
2022/02/25 02:41:49;;;;;;;5.53;3.90;;;;;;;4.22;74.11;100674.72;5001955;28;20179;-65
2022/02/25 02:44:14;;;;;;;6.43;3.83;;;;;;;4.29;74.69;100681.84;5001677;28;20576;-65
2022/02/25 02:46:41;;;;;;;5.40;3.70;;;;;;;4.37;74.17;100689.84;4985111;28;20184;-65
2022/02/25 02:49:06;;;;;;;6.80;3.60;;;;;;;4.24;74.01;100680.81;5001536;28;20176;-64
2022/02/25 02:51:31;;;;;;;8.27;3.53;;;;;;;4.37;74.94;100689.84;5001793;28;20461;-64
2022/02/25 02:53:57;;;;;;;5.47;3.67;;;;;;;4.29;74.39;100691.28;5001766;28;20246;-65
2022/02/25 02:56:22;;;;;;;10.17;3.47;;;;;;;4.33;74.41;100686.28;5001388;28;20307;-64
2022/02/25 02:58:55;;;;;;;6.77;4.10;;;;;;;4.45;74.09;100692.69;5001227;28;20176;-65
2022/02/25 03:01:22;;;;;;;10.57;3.70;;;;;;;4.75;73.59;100684.19;5000675;28;20552;-65
2022/02/25 03:03:48;;;;;;;6.40;4.60;;;;;;;4.68;74.50;100684.00;5001104;28;20537;-64
2022/02/25 03:06:13;;;;;;;10.50;4.17;;;;;;;4.81;73.34;100694.75;4984285;28;20817;-64
2022/02/25 03:08:38;;;;;;;7.50;4.17;;;;;;;4.59;73.12;100696.63;5000799;28;20219;-65
2022/02/25 03:11:03;;;;;;;9.43;4.30;;;;;;;4.49;73.63;100698.03;5001127;28;20191;-66
2022/02/25 03:13:29;;;;;;;10.10;4.27;;;;;;;4.55;73.33;100697.34;5001311;28;20211;-65
2022/02/25 03:15:54;;;;;;;7.90;4.00;;;;;;;4.49;73.67;100698.03;5000929;28;20171;-65
2022/02/25 03:18:19;;;;;;;6.13;4.23;;;;;;;4.40;72.60;100695.13;5000853;28;20175;-65
2022/02/25 03:20:45;;;;;;;7.70;3.77;;;;;;;4.37;73.25;100695.91;5001686;28;20489;-65
2022/02/25 03:23:10;;;;;;;9.80;4.47;;;;;;;4.53;73.40;100699.88;5000875;28;20176;-65
2022/02/25 03:25:36;;;;;;;7.80;3.83;;;;;;;4.55;74.80;100702.50;5000749;28;20536;-65
2022/02/25 03:28:01;;;;;;;6.27;3.83;;;;;;;4.44;73.22;100707.31;5001246;28;20287;-66
2022/02/25 03:30:26;;;;;;;5.80;3.93;;;;;;;4.52;72.45;100705.00;5000921;28;20171;-64
2022/02/25 03:32:52;;;;;;;9.23;4.60;;;;;;;4.23;73.11;100702.28;5000669;28;20182;-65
2022/02/25 03:35:18;;;;;;;8.90;4.50;;;;;;;4.46;73.38;100699.59;5001405;28;20168;-65
2022/02/25 03:37:43;;;;;;;8.67;4.10;;;;;;;4.54;72.58;100700.75;5000403;28;20175;-65
2022/02/25 03:40:10;;;;;;;8.00;4.57;;;;;;;4.69;73.52;100700.38;5000390;28;20446;-65
2022/02/25 03:42:36;;;;;;;10.57;5.73;;;;;;;4.68;72.38;100709.84;5000883;28;20174;-66
2022/02/25 03:45:04;;;;;;;10.27;4.53;;;;;;;4.37;72.45;100706.22;5000409;28;20458;-65
2022/02/25 03:47:30;;;;;;;5.70;3.93;;;;;;;4.53;72.05;100702.47;5000508;28;20552;-65
2022/02/25 03:49:55;;;;;;;10.70;4.30;;;;;;;4.53;73.03;100711.88;5001161;28;20820;-66
2022/02/25 03:52:21;;;;;;;5.33;4.47;;;;;;;4.69;72.32;100702.97;5000649;28;20485;-64
2022/02/25 03:54:46;;;;;;;7.00;3.97;;;;;;;4.48;72.05;100714.31;5000156;28;20267;-65
2022/02/25 03:57:11;;;;;;;6.73;4.47;;;;;;;4.42;71.78;100720.97;5000993;28;20226;-65
2022/02/25 03:59:36;;;;;;;7.10;3.90;;;;;;;4.47;72.88;100714.28;4999717;28;20227;-66
2022/02/25 04:02:03;;;;;;;10.20;3.80;;;;;;;4.20;72.81;100715.94;5000103;28;20258;-66
2022/02/25 04:04:28;;;;;;;10.37;4.53;;;;;;;4.52;72.13;100715.31;4983486;28;20204;-65
2022/02/25 04:06:53;;;;;;;5.27;3.13;;;;;;;4.37;73.18;100721.72;4999756;28;20651;-65
2022/02/25 04:09:19;;;;;;;6.20;4.13;;;;;;;4.43;73.22;100725.34;5000004;28;20227;-65
2022/02/25 04:11:48;;;;;;;8.20;4.13;;;;;;;4.48;73.01;100723.75;5000340;28;20183;-65
2022/02/25 04:14:18;;;;;;;8.03;4.60;;;;;;;4.57;72.70;100726.66;4982778;28;20168;-65
2022/02/25 04:16:44;;;;;;;6.90;4.00;;;;;;;4.33;73.69;100730.16;4999804;28;20423;-65
2022/02/25 04:19:09;;;;;;;12.07;4.73;;;;;;;4.68;71.98;100739.94;5000155;28;20403;-65
2022/02/25 04:21:35;;;;;;;9.97;4.27;;;;;;;4.62;72.50;100737.16;5000005;28;20176;-65
2022/02/25 04:24:00;;;;;;;8.27;3.73;;;;;;;4.16;72.72;100741.59;4998797;28;20263;-65
2022/02/25 04:26:26;;;;;;;7.23;4.53;;;;;;;4.16;73.78;100746.75;5000095;28;20176;-65
2022/02/25 04:28:51;;;;;;;8.50;3.87;;;;;;;4.40;73.36;100751.91;4982584;28;20488;-66
2022/02/25 04:31:17;;;;;;;11.70;4.27;;;;;;;4.17;74.09;100743.34;4999567;28;20526;-66
2022/02/25 04:33:42;;;;;;;11.00;4.00;;;;;;;4.27;73.23;100760.91;5000212;28;20218;-65
2022/02/25 04:36:07;;;;;;;7.37;4.50;;;;;;;4.22;73.29;100758.19;4999764;28;20180;-65
2022/02/25 04:38:33;;;;;;;9.77;4.43;;;;;;;4.64;72.74;100764.78;4999459;28;20545;-65
2022/02/25 04:41:01;;;;;;;8.17;4.40;;;;;;;4.36;73.12;100755.22;5000105;28;20186;-65
2022/02/25 04:43:27;;;;;;;8.13;4.40;;;;;;;4.53;73.16;100750.63;4999391;28;20282;-65
2022/02/25 04:45:53;;;;;;;6.87;3.80;;;;;;;4.50;72.38;100760.84;4999482;28;20702;-65
2022/02/25 04:48:18;;;;;;;9.07;4.10;;;;;;;4.53;72.13;100758.34;4999485;28;20415;-65
2022/02/25 04:50:43;;;;;;;8.90;3.90;;;;;;;4.68;72.17;100765.75;4999103;28;20270;-65
2022/02/25 04:53:08;;;;;;;10.10;3.90;;;;;;;4.79;72.12;100760.94;4999126;28;20260;-65
2022/02/25 04:55:34;;;;;;;5.67;3.90;;;;;;;4.60;72.10;100769.78;4999533;28;20182;-66
2022/02/25 04:57:59;;;;;;;9.40;4.10;;;;;;;4.42;72.18;100772.59;4998995;28;20459;-65
2022/02/25 05:00:24;;;;;;;6.40;3.50;;;;;;;4.36;72.43;100781.88;4998864;28;20179;-65
2022/02/25 05:02:50;;;;;;;5.93;3.90;;;;;;;4.13;72.84;100764.72;4999702;28;20175;-65
2022/02/25 05:05:15;;;;;;;6.73;4.10;;;;;;;4.39;71.54;100775.97;4999066;28;20211;-65
2022/02/25 05:07:40;;;;;;;6.37;4.13;;;;;;;4.62;71.66;100765.56;4998730;28;20612;-64
2022/02/25 05:10:07;;;;;;;7.43;3.77;;;;;;;4.53;71.86;100781.59;4998556;28;20171;-66
2022/02/25 05:12:32;;;;;;;5.33;3.87;;;;;;;4.18;72.66;100769.22;4998797;28;20186;-65
2022/02/25 05:20:25;;;;;;;12.30;4.20;;;;;;;4.33;72.48;100784.38;4998867;28;20678;-65
2022/02/25 05:22:55;;;;;;;16.03;4.63;;;;;;;4.29;71.98;100785.09;4998783;28;20414;-65
2022/02/25 05:25:22;;;;;;;14.10;3.90;;;;;;;4.20;72.57;100795.94;4998876;28;20550;-65
2022/02/25 05:27:47;;;;;;;9.90;4.80;;;;;;;4.62;72.49;100794.81;4998974;28;20418;-65
2022/02/25 05:30:15;;;;;;;10.47;4.73;;;;;;;4.51;71.80;100796.16;4981721;28;20467;-64
2022/02/25 05:32:40;;;;;;;8.90;4.27;;;;;;;4.54;71.91;100793.69;4998758;28;20505;-65
2022/02/25 05:35:08;;;;;;;8.33;4.83;;;;;;;4.69;71.44;100795.91;4999211;28;20446;-65
2022/02/25 05:37:33;;;;;;;9.63;3.87;;;;;;;4.63;70.91;100795.72;4998546;28;20544;-65
2022/02/25 05:39:58;;;;;;;13.17;4.83;;;;;;;4.45;71.69;100807.16;4998788;28;20404;-64
2022/02/25 05:42:23;;;;;;;10.80;4.17;;;;;;;4.49;71.30;100797.81;4999218;28;20182;-65
2022/02/25 05:44:50;;;;;;;8.20;4.00;;;;;;;4.47;71.69;100810.66;4998548;28;20203;-65
2022/02/25 05:47:15;;;;;;;4.33;3.47;;;;;;;4.64;70.88;100800.94;4998239;28;20274;-65
2022/02/25 05:49:40;;;;;;;8.93;3.67;;;;;;;4.86;71.22;100793.94;4998851;28;20439;-65
2022/02/25 05:52:05;;;;;;;10.43;3.83;;;;;;;4.86;70.46;100806.84;4998853;28;20203;-66
2022/02/25 05:54:31;;;;;;;6.57;3.80;;;;;;;4.74;70.32;100806.44;4998657;28;20537;-65
2022/02/25 05:56:56;;;;;;;6.77;3.53;;;;;;;4.91;70.39;100810.44;4998641;28;20183;-64
2022/02/25 05:59:21;;;;;;;7.20;3.70;;;;;;;4.71;69.99;100815.81;4998299;28;20175;-65
2022/02/25 06:01:47;;;;;;;6.80;4.20;;;;;;;4.86;69.82;100806.84;4997628;28;20182;-65
2022/02/25 06:04:12;;;;;;;13.43;4.50;;;;;;;4.89;69.37;100804.34;4998967;28;20195;-66
2022/02/25 06:06:37;;;;;;;6.70;3.83;;;;;;;4.93;70.94;100803.63;4998348;28;20223;-65
2022/02/25 06:09:03;;;;;;;5.60;3.53;;;;;;;4.84;69.87;100814.53;4998125;28;20266;-65
2022/02/25 06:11:28;;;;;;;5.70;3.80;;;;;;;4.84;70.19;100809.38;4998628;28;20533;-65
2022/02/25 06:13:53;;;;;;;8.50;3.80;;;;;;;4.69;70.51;100816.56;4981460;28;20548;-65
2022/02/25 06:16:19;;;;;;;6.87;4.07;;;;;;;5.03;69.59;100818.63;4998220;28;20176;-64
2022/02/25 06:18:44;;;;;;;7.63;3.70;;;;;;;4.63;69.98;100832.75;4998538;28;20171;-66
2022/02/25 06:21:09;;;;;;;6.20;3.50;;;;;;;4.86;70.73;100817.16;4998835;28;20178;-65
2022/02/25 06:23:35;;;;;;;10.47;4.40;;;;;;;4.68;69.84;100819.97;5001144;28;20282;-65
2022/02/25 06:26:00;;;;;;;7.40;4.27;;;;;;;5.04;70.64;100819.50;5002210;28;20196;-66
2022/02/25 06:28:25;;;;;;;9.70;5.20;;;;;;;4.79;70.01;100825.50;5001746;28;20168;-65
2022/02/25 06:30:51;;;;;;;8.60;4.67;;;;;;;5.07;69.37;100817.00;5002454;28;20168;-65
2022/02/25 06:33:16;;;;;;;7.00;4.13;;;;;;;5.26;69.73;100804.69;5001258;28;20182;-65
2022/02/25 06:35:41;;;;;;;6.30;3.73;;;;;;;4.67;69.12;100820.81;5001443;28;20183;-65
2022/02/25 06:38:07;;;;;;;6.80;4.07;;;;;;;4.91;69.57;100812.16;5001557;28;20436;-65
2022/02/25 06:40:32;;;;;;;6.43;3.90;;;;;;;4.91;69.77;100817.31;5003652;28;20171;-65
2022/02/25 06:42:57;;;;;;;6.60;4.13;;;;;;;5.09;69.08;100809.28;5003347;28;20183;-64
2022/02/25 06:45:23;;;;;;;10.70;4.80;;;;;;;5.32;68.54;100805.75;5002579;28;20481;-64
2022/02/25 06:47:49;;;;;;;7.17;4.60;;;;;;;5.13;67.87;100793.06;5003489;28;20251;-65
2022/02/25 06:50:15;;;;;;;8.10;4.27;;;;;;;5.21;67.84;100809.72;5004034;28;20195;-65
2022/02/25 06:52:41;;;;;;;9.00;5.10;;;;;;;5.36;67.93;100799.84;5003008;28;20167;-64
2022/02/25 06:55:07;;;;;;;8.63;4.70;;;;;;;5.16;67.61;100814.72;4985999;28;20477;-67
2022/02/25 06:57:32;;;;;;;11.90;5.03;;;;;;;4.91;67.61;100818.19;4984738;28;20175;-65
2022/02/25 06:59:58;;;;;;;9.93;4.70;;;;;;;5.76;67.24;100813.13;5001077;28;20419;-65
2022/02/25 07:02:23;;;;;;;8.83;5.67;;;;;;;5.66;67.06;100817.16;4985579;28;20210;-66
2022/02/25 07:04:48;;;;;;;8.33;5.27;;;;;;;5.39;67.52;100820.63;5002263;28;20208;-64
2022/02/25 07:07:14;;;;;;;7.80;4.60;;;;;;;5.22;68.37;100824.38;5001275;28;20261;-64
2022/02/25 07:09:40;;;;;;;16.43;4.90;;;;;;;5.04;67.89;100817.78;5001466;28;20202;-65
2022/02/25 07:12:06;;;;;;;4.53;4.10;;;;;;;4.84;68.69;100840.38;5001069;28;20183;-65
2022/02/25 07:14:33;;;;;;;6.87;4.70;;;;;;;4.99;68.39;100842.59;4984128;28;20469;-65
2022/02/25 07:16:58;;;;;;;15.07;5.20;;;;;;;5.30;67.88;100837.56;5001141;28;20411;-66
2022/02/25 07:19:23;;;;;;;7.20;4.93;;;;;;;5.53;67.76;100830.53;5001233;28;20502;-65
2022/02/25 07:21:49;;;;;;;11.77;4.57;;;;;;;5.22;68.64;100832.13;5000971;28;20203;-66
2022/02/25 07:24:14;;;;;;;7.60;4.60;;;;;;;5.19;67.44;100838.06;5001481;28;20196;-65
2022/02/25 07:26:40;;;;;;;8.43;4.80;;;;;;;5.36;67.10;100838.63;5001251;28;20222;-64
2022/02/25 07:29:05;;;;;;;8.80;4.83;;;;;;;5.65;66.37;100832.63;4993468;28;20215;-66
2022/02/25 07:31:31;;;;;;;11.10;4.83;;;;;;;5.55;66.51;100834.06;4983939;28;20183;-65
2022/02/25 07:33:56;;;;;;;8.70;4.40;;;;;;;6.25;64.82;100837.03;4999541;28;20258;-66
2022/02/25 07:36:21;;;;;;;9.27;5.13;;;;;;;6.90;62.71;100831.94;4996036;28;20169;-66
2022/02/25 07:38:46;;;;;;;8.77;4.80;;;;;;;7.63;60.79;100831.13;4981513;28;20210;-66
2022/02/25 07:41:13;;;;;;;10.27;5.00;;;;;;;8.08;58.22;100822.56;4981095;28;20196;-66
2022/02/25 07:43:38;;;;;;;15.73;4.13;;;;;;;8.48;56.44;100816.47;4980931;28;20470;-67
2022/02/25 07:46:03;;;;;;;6.20;4.23;;;;;;;8.54;55.80;100811.41;4994982;28;20175;-66
2022/02/25 07:48:29;;;;;;;8.63;5.23;;;;;;;8.21;55.39;100815.03;5000115;28;20176;-66
2022/02/25 07:50:54;;;;;;;10.10;4.60;;;;;;;8.34;56.20;100822.22;5000229;28;20202;-67
2022/02/25 07:53:20;;;;;;;7.33;4.03;;;;;;;9.27;54.24;100824.81;5000869;28;20462;-65
2022/02/25 07:55:46;;;;;;;5.20;3.70;;;;;;;9.61;52.26;100819.25;5001306;28;20199;-65
2022/02/25 07:58:12;;;;;;;9.60;4.30;;;;;;;9.48;52.68;100822.53;5001476;28;20433;-66
2022/02/25 08:00:38;;;;;;;7.30;4.27;;;;;;;7.30;57.82;100826.00;5001684;28;20451;-64
2022/02/25 08:03:04;;;;;;;10.20;5.10;;;;;;;7.35;59.47;100837.38;4986902;28;20406;-64
2022/02/25 08:05:30;;;;;;;12.10;5.20;;;;;;;6.36;62.57;100833.06;4980961;28;20498;-63
2022/02/25 08:08:04;;;;;;;8.93;4.70;;;;;;;6.35;61.76;100839.06;4989581;28;20219;-64
2022/02/25 08:10:32;;;;;;;10.60;5.67;;;;;;;6.28;62.53;100831.06;5001260;28;20531;-65
2022/02/25 08:12:57;;;;;;;11.10;4.77;;;;;;;5.98;63.20;100845.78;5000967;28;20419;-66
2022/02/25 08:15:23;;;;;;;7.13;4.87;;;;;;;5.96;64.77;100855.16;5000661;28;20422;-65
2022/02/25 08:17:48;;;;;;;7.00;4.40;;;;;;;5.65;65.81;100849.03;5000458;28;20433;-67
2022/02/25 08:20:13;;;;;;;6.33;4.43;;;;;;;5.17;65.94;100862.13;5001532;28;20183;-65
2022/02/25 08:22:39;;;;;;;12.93;4.87;;;;;;;5.38;66.11;100857.66;5000788;28;20179;-65
2022/02/25 08:25:05;;;;;;;14.07;6.03;;;;;;;5.68;65.30;100856.91;5000080;28;20215;-65
2022/02/25 08:27:30;;;;;;;14.40;6.63;;;;;;;5.51;65.63;100860.66;5000448;28;20176;-62
2022/02/25 08:29:56;;;;;;;8.27;5.47;;;;;;;5.51;66.03;100839.97;5000329;28;20473;-63
2022/02/25 08:32:21;;;;;;;9.23;6.00;;;;;;;5.55;65.83;100845.28;5001574;28;20203;-64
2022/02/25 08:34:46;;;;;;;11.73;6.30;;;;;;;5.00;66.68;100849.50;4999957;28;20587;-65
2022/02/25 08:37:12;;;;;;;12.90;6.57;;;;;;;4.88;67.78;100864.59;4999298;28;20183;-65
2022/02/25 08:39:37;;;;;;;9.20;6.53;;;;;;;4.75;68.16;100875.31;4999417;28;20176;-65
2022/02/25 08:42:03;;;;;;;9.07;5.80;;;;;;;5.40;66.93;100866.34;4999656;28;20172;-64
2022/02/25 08:44:28;;;;;;;9.13;6.93;;;;;;;5.40;67.03;100870.66;4999131;28;20207;-64
2022/02/25 08:46:53;;;;;;;10.20;7.47;;;;;;;5.30;68.16;100864.28;4999256;28;20168;-66
2022/02/25 08:49:19;;;;;;;13.47;7.17;;;;;;;4.59;70.30;100877.34;4999572;28;20179;-66
2022/02/25 08:51:47;;;;;;;11.20;7.00;;;;;;;4.97;69.41;100867.50;4999307;28;20202;-65
2022/02/25 08:54:12;;;;;;;11.03;7.47;;;;;;;5.12;70.01;100864.56;4999368;28;20183;-65
2022/02/25 08:56:38;;;;;;;13.83;8.30;;;;;;;5.12;69.43;100866.28;4999798;28;20415;-65
2022/02/25 08:59:04;;;;;;;12.03;7.67;;;;;;;5.04;69.10;100874.63;4998719;28;20176;-65
2022/02/25 09:01:30;;;;;;;8.77;7.00;;;;;;;5.04;69.81;100873.75;4999043;28;20183;-68
2022/02/25 09:03:55;;;;;;;10.40;7.20;;;;;;;5.11;70.20;100893.78;4999217;28;20505;-65
2022/02/25 09:06:20;;;;;;;12.53;8.03;;;;;;;4.97;70.30;100895.91;4999035;28;20203;-66
2022/02/25 09:08:46;;;;;;;10.30;7.77;;;;;;;4.63;71.04;100893.84;4999797;28;20235;-66
2022/02/25 09:11:11;;;;;;;12.97;8.27;;;;;;;4.54;72.24;100886.63;4984461;28;20242;-67
2022/02/25 09:13:36;;;;;;;14.50;8.33;;;;;;;4.62;72.43;100897.25;5000837;28;20226;-68
2022/02/25 09:16:04;;;;;;;14.17;8.47;;;;;;;4.85;72.05;100896.34;5000109;28;20190;-66
2022/02/25 09:18:29;;;;;;;13.90;7.93;;;;;;;5.25;71.23;100885.63;4999955;28;20178;-66
2022/02/25 09:20:55;;;;;;;9.80;7.60;;;;;;;4.82;71.89;100896.25;4997546;28;20823;-66
2022/02/25 09:23:20;;;;;;;16.67;7.57;;;;;;;4.77;71.72;100897.78;4983312;28;20189;-63
2022/02/25 09:25:46;;;;;;;12.10;8.40;;;;;;;5.17;71.55;100885.41;4979576;28;20431;-65
2022/02/25 09:28:12;;;;;;;14.00;8.13;;;;;;;5.49;70.21;100886.44;4991215;28;20222;-66
2022/02/25 09:30:38;;;;;;;10.37;8.10;;;;;;;5.72;69.29;100878.53;4999978;28;20171;-67
2022/02/25 09:33:03;;;;;;;10.00;7.87;;;;;;;5.48;69.22;100881.22;4999150;28;20419;-66
2022/02/25 09:35:28;;;;;;;9.80;7.30;;;;;;;5.20;69.36;100886.34;4999315;28;20187;-66
2022/02/25 09:37:54;;;;;;;11.50;8.80;;;;;;;4.88;71.47;100901.66;4998427;28;20186;-67
2022/02/25 09:40:20;;;;;;;8.90;6.67;;;;;;;4.89;71.58;100924.03;4998843;28;20182;-65
2022/02/25 09:42:47;;;;;;;9.67;7.17;;;;;;;5.41;70.44;100908.56;4998628;28;20619;-66
2022/02/25 09:45:14;;;;;;;10.03;7.80;;;;;;;5.24;70.54;100913.19;4998831;28;20466;-66
2022/02/25 09:47:41;;;;;;;11.10;7.37;;;;;;;5.56;70.11;100921.13;5000404;28;20749;-65
2022/02/25 09:50:09;;;;;;;11.73;7.17;;;;;;;5.32;70.56;100923.81;4983965;28;20450;-66
2022/02/25 09:52:38;;;;;;;9.93;7.60;;;;;;;5.09;72.22;100926.47;4982989;28;20565;-67
2022/02/25 09:55:26;;;;;;;9.73;7.63;;;;;;;5.14;72.24;100926.63;4999452;28;20414;-67
2022/02/25 09:57:53;;;;;;;13.60;8.23;;;;;;;5.29;71.85;100922.00;5003488;28;20508;-67
2022/02/25 10:00:19;;;;;;;13.03;8.80;;;;;;;5.34;71.21;100917.84;5004943;28;20502;-68
2022/02/25 10:02:47;;;;;;;12.43;7.93;;;;;;;5.23;72.08;100907.13;5003206;28;20422;-69
2022/02/25 10:05:21;;;;;;;10.33;8.53;;;;;;;5.48;71.42;100907.06;5003982;28;20553;-64
2022/02/25 10:07:46;;;;;;;11.03;8.50;;;;;;;5.57;71.05;100916.03;5003726;28;20452;-65
2022/02/25 10:10:14;;;;;;;16.10;8.70;;;;;;;5.46;71.49;100919.97;5004779;28;20422;-64
2022/02/25 10:12:45;;;;;;;13.00;8.50;;;;;;;5.16;72.70;100922.41;5004539;28;20179;-66
2022/02/25 10:15:11;;;;;;;11.87;8.23;;;;;;;5.47;72.48;100923.44;5003165;28;20711;-65
2022/02/25 10:17:37;;;;;;;14.53;8.67;;;;;;;5.28;73.05;100927.13;5004108;28;20430;-68
2022/02/25 10:20:07;;;;;;;12.17;8.80;;;;;;;5.34;73.63;100942.81;5005010;28;20419;-63
2022/02/25 10:22:37;;;;;;;11.03;8.80;;;;;;;5.30;74.18;100957.34;5005142;28;20418;-65
2022/02/25 10:25:07;;;;;;;13.33;8.67;;;;;;;4.80;75.89;100959.88;5004005;28;20437;-67
2022/02/25 10:27:40;;;;;;;17.20;9.50;;;;;;;5.14;75.60;100966.28;4987421;28;20657;-67
2022/02/25 10:30:14;;;;;;;9.60;8.50;;;;;;;4.94;76.40;100965.56;5003294;28;20426;-69
2022/02/25 10:32:50;;;;;;;14.03;9.90;;;;;;;4.73;77.11;100965.66;5003143;28;20518;-67
2022/02/25 10:35:18;;;;;;;16.07;9.30;;;;;;;4.48;77.50;100962.16;5003015;28;20411;-67
2022/02/25 10:37:54;;;;;;;12.47;9.50;;;;;;;4.62;78.24;100970.41;5003550;28;20418;-67
2022/02/25 10:40:20;;;;;;;15.40;10.57;;;;;;;4.34;78.86;100966.81;5005187;28;20684;-66
2022/02/25 10:42:45;;;;;;;14.13;9.80;;;;;;;4.30;79.16;100975.25;5005758;28;20422;-67
2022/02/25 10:45:11;;;;;;;12.37;9.03;;;;;;;4.75;78.59;100976.94;5004042;28;20596;-67
2022/02/25 10:47:36;;;;;;;19.43;8.80;;;;;;;4.52;78.54;100964.03;5006371;28;20174;-65
2022/02/25 10:50:09;;;;;;;16.67;9.90;;;;;;;5.26;77.84;100958.06;5006205;28;20187;-65
2022/02/25 10:52:37;;;;;;;14.27;8.53;;;;;;;5.22;76.22;100954.50;5002306;28;20412;-65
2022/02/25 10:55:06;;;;;;;13.80;9.07;;;;;;;5.61;76.44;100957.50;5002965;28;20465;-65
2022/02/25 10:57:34;;;;;;;9.50;7.90;;;;;;;5.40;76.00;100959.41;5003066;28;20443;-65
2022/02/25 11:00:01;;;;;;;8.80;7.13;;;;;;;5.47;76.06;100964.81;5002953;28;20835;-64
2022/02/25 11:02:37;;;;;;;9.47;7.37;;;;;;;5.15;77.07;100973.19;5004525;28;20907;-64
2022/02/25 11:05:16;;;;;;;11.30;6.07;;;;;;;5.28;76.84;100974.50;5004032;28;20469;-65
2022/02/25 11:07:47;;;;;;;7.37;6.60;;;;;;;5.45;76.74;100967.31;5001768;28;20505;-64
2022/02/25 11:10:15;;;;;;;10.93;7.13;;;;;;;5.59;76.38;100970.41;5003840;28;20487;-65
2022/02/25 11:12:41;;;;;;;13.13;7.67;;;;;;;5.79;76.14;100968.47;5003651;28;20403;-66
2022/02/25 11:15:09;;;;;;;8.80;6.33;;;;;;;5.29;75.68;100978.88;5002469;28;20419;-64
2022/02/25 11:17:36;;;;;;;7.73;6.60;;;;;;;5.74;75.75;100981.25;5002573;28;20397;-65
2022/02/25 11:20:03;;;;;;;9.97;6.20;;;;;;;5.35;76.05;100978.19;5003098;28;20411;-65
2022/02/25 11:22:29;;;;;;;10.17;5.90;;;;;;;5.14;76.75;100981.78;5001303;28;20415;-65
2022/02/25 11:24:57;;;;;;;9.70;5.73;;;;;;;5.65;76.40;100975.75;4984069;28;20505;-65
2022/02/25 11:27:22;;;;;;;10.47;6.33;;;;;;;6.39;74.44;100975.56;4984284;28;20418;-65
2022/02/25 11:30:07;;;;;;;7.90;4.77;;;;;;;7.16;71.72;100970.84;5000740;28;20430;-67
2022/02/25 11:32:39;;;;;;;7.00;5.37;;;;;;;7.68;69.23;100967.00;4983745;28;20171;-67
2022/02/25 11:35:19;;;;;;;9.57;5.23;;;;;;;8.36;66.36;100950.44;4983344;28;20414;-66
2022/02/25 11:37:47;;;;;;;11.20;4.43;;;;;;;7.83;67.79;100963.91;5000435;28;20400;-66